createdAt,value
2023-03-30T00:00:47.385Z,2.64
2023-03-30T00:02:54.037Z,2.66
2023-03-30T00:05:03.554Z,2.66
2023-03-30T00:07:06.609Z,2.64
2023-03-30T00:09:09.786Z,2.64
2023-03-30T00:11:15.779Z,2.61
2023-03-30T00:13:18.392Z,2.59
2023-03-30T00:15:22.829Z,2.62
2023-03-30T00:17:26.255Z,2.61
2023-03-30T00:19:28.821Z,2.62
2023-03-30T00:21:31.436Z,2.61
2023-03-30T00:23:34.297Z,2.63
2023-03-30T00:25:37.085Z,2.65
2023-03-30T00:27:40.853Z,2.64
2023-03-30T00:29:43.382Z,2.65
2023-03-30T00:31:45.967Z,2.63
2023-03-30T00:33:48.626Z,2.61
2023-03-30T00:35:55.887Z,2.60
2023-03-30T00:38:03.537Z,2.59
2023-03-30T00:40:09.780Z,2.59
2023-03-30T00:42:17.209Z,2.58
2023-03-30T00:44:57.111Z,2.55
2023-03-30T00:46:59.788Z,2.53
2023-03-30T00:49:06.637Z,2.48
2023-03-30T00:51:12.435Z,2.49
2023-03-30T00:53:24.987Z,2.47
2023-03-30T00:55:29.766Z,2.46
2023-03-30T00:57:34.065Z,2.45
2023-03-30T00:59:36.792Z,2.42
2023-03-30T01:01:42.014Z,2.44
2023-03-30T01:03:48.281Z,2.39
2023-03-30T01:05:52.427Z,2.39
2023-03-30T01:07:58.172Z,2.42
2023-03-30T01:10:01.955Z,2.43
2023-03-30T01:12:06.787Z,2.42
2023-03-30T01:14:12.287Z,2.39
2023-03-30T01:16:52.699Z,2.39
2023-03-30T01:19:23.580Z,2.37
2023-03-30T01:21:55.783Z,2.37
2023-03-30T01:24:20.382Z,2.33
2023-03-30T01:26:51.192Z,2.30
2023-03-30T01:28:58.609Z,2.26
2023-03-30T01:31:45.775Z,2.24
2023-03-30T01:34:07.364Z,2.19
2023-03-30T01:36:21.712Z,2.13
2023-03-30T01:38:45.519Z,2.09
2023-03-30T01:41:26.741Z,2.09
2023-03-30T01:43:47.115Z,2.05
2023-03-30T01:46:01.766Z,2.03
2023-03-30T01:48:26.413Z,2.07
2023-03-30T01:50:38.376Z,2.05
2023-03-30T01:52:53.933Z,2.01
2023-03-30T01:55:10.784Z,1.95
2023-03-30T01:57:20.392Z,1.99
2023-03-30T01:59:38.108Z,2.03
2023-03-30T02:01:43.393Z,2.00
2023-03-30T02:03:53.649Z,2.00
2023-03-30T02:06:19.333Z,2.02
2023-03-30T02:08:27.710Z,2.02
2023-03-30T02:10:33.690Z,2.01
2023-03-30T02:12:37.477Z,2.02
2023-03-30T02:14:41.970Z,2.04
2023-03-30T02:16:52.072Z,2.03
2023-03-30T02:18:55.569Z,2.08
2023-03-30T02:20:59.526Z,2.09
2023-03-30T02:23:03.761Z,2.11
2023-03-30T02:25:06.781Z,2.13
2023-03-30T02:27:10.137Z,2.16
2023-03-30T02:29:14.081Z,2.18
2023-03-30T02:31:17.585Z,2.22
2023-03-30T02:33:46.980Z,2.26
2023-03-30T02:35:56.562Z,2.26
2023-03-30T02:38:39.958Z,2.30
2023-03-30T02:41:14.056Z,2.30
2023-03-30T02:43:37.568Z,2.33
2023-03-30T02:45:53.824Z,2.36
2023-03-30T02:48:20.849Z,2.39
2023-03-30T02:50:34.321Z,2.38
2023-03-30T02:52:52.689Z,2.42
2023-03-30T02:55:38.440Z,2.46
2023-03-30T02:57:40.922Z,2.49
2023-03-30T02:59:58.133Z,2.50
2023-03-30T03:02:09.795Z,2.52
2023-03-30T03:04:15.702Z,2.53
2023-03-30T03:06:20.635Z,2.53
2023-03-30T03:08:25.166Z,2.54
2023-03-30T03:10:27.696Z,2.56
2023-03-30T03:12:30.285Z,2.57
2023-03-30T03:14:33.089Z,2.61
2023-03-30T03:16:36.275Z,2.61
2023-03-30T03:18:42.268Z,2.66
2023-03-30T03:20:45.454Z,2.69
2023-03-30T03:22:48.038Z,2.76
2023-03-30T03:24:50.580Z,2.80
2023-03-30T03:26:53.201Z,2.81
2023-03-30T03:28:55.789Z,2.83
2023-03-30T03:31:00.064Z,2.84
2023-03-30T03:33:02.720Z,2.87
2023-03-30T03:35:05.704Z,2.89
2023-03-30T03:37:08.475Z,2.90
2023-03-30T03:39:11.035Z,2.92
2023-03-30T03:41:13.698Z,2.96
2023-03-30T03:43:16.705Z,2.95
2023-03-30T03:45:19.266Z,3.02
2023-03-30T03:47:23.325Z,3.02
2023-03-30T03:49:26.092Z,3.09
2023-03-30T03:51:29.518Z,3.11
2023-03-30T03:53:32.541Z,3.16
2023-03-30T03:55:35.520Z,3.16
2023-03-30T03:57:38.779Z,3.21
2023-03-30T03:59:41.410Z,3.24
2023-03-30T04:01:43.977Z,3.21
2023-03-30T04:03:46.702Z,3.24
2023-03-30T04:05:49.811Z,3.27
2023-03-30T04:07:53.750Z,3.31
2023-03-30T04:09:56.281Z,3.32
2023-03-30T04:11:59.044Z,3.37
2023-03-30T04:14:01.785Z,3.39
2023-03-30T04:16:04.901Z,3.42
2023-03-30T04:18:08.919Z,3.47
2023-03-30T04:20:12.515Z,3.49
2023-03-30T04:22:15.051Z,3.55
2023-03-30T04:24:18.143Z,3.59
2023-03-30T04:26:20.776Z,3.65
2023-03-30T04:28:24.787Z,3.71
2023-03-30T04:30:30.728Z,3.76
2023-03-30T04:32:35.149Z,3.82
2023-03-30T04:34:37.798Z,3.81
2023-03-30T04:36:43.529Z,3.90
2023-03-30T04:38:59.891Z,3.98
2023-03-30T04:41:02.658Z,4.07
2023-03-30T04:43:05.484Z,4.14
2023-03-30T04:45:10.200Z,4.21
2023-03-30T04:47:12.809Z,4.30
2023-03-30T04:49:15.967Z,4.31
2023-03-30T04:51:18.611Z,4.40
2023-03-30T04:53:23.227Z,4.45
2023-03-30T04:55:25.788Z,4.57
2023-03-30T04:57:28.499Z,4.65
2023-03-30T04:59:31.107Z,4.72
2023-03-30T05:01:33.861Z,4.82
2023-03-30T05:03:37.064Z,4.90
2023-03-30T05:05:39.738Z,4.94
2023-03-30T05:07:42.348Z,4.94
2023-03-30T05:09:45.022Z,4.92
2023-03-30T05:11:47.744Z,4.92
2023-03-30T05:13:54.414Z,4.88
2023-03-30T05:15:57.697Z,4.85
2023-03-30T05:18:00.717Z,4.85
2023-03-30T05:20:08.486Z,4.92
2023-03-30T05:22:11.323Z,4.94
2023-03-30T05:24:15.086Z,4.99
2023-03-30T05:26:17.759Z,5.06
2023-03-30T05:28:21.086Z,5.10
2023-03-30T05:30:23.746Z,5.18
2023-03-30T05:32:26.840Z,5.26
2023-03-30T05:34:29.435Z,5.38
2023-03-30T05:36:32.154Z,5.47
2023-03-30T05:38:35.260Z,5.62
2023-03-30T05:40:38.209Z,5.64
2023-03-30T05:42:40.821Z,5.68
2023-03-30T05:44:43.458Z,5.72
2023-03-30T05:46:47.270Z,5.75
2023-03-30T05:48:50.399Z,5.84
2023-03-30T05:50:52.975Z,5.96
2023-03-30T05:52:55.607Z,6.08
2023-03-30T05:54:58.321Z,6.07
2023-03-30T05:57:01.138Z,6.02
2023-03-30T05:59:05.376Z,6.07
2023-03-30T06:01:09.573Z,6.11
2023-03-30T06:03:13.537Z,6.15
2023-03-30T06:05:16.479Z,6.20
2023-03-30T06:07:20.948Z,6.31
2023-03-30T06:09:24.323Z,6.42
2023-03-30T06:11:28.434Z,6.54
2023-03-30T06:13:31.969Z,6.65
2023-03-30T06:15:34.618Z,6.76
2023-03-30T06:17:37.307Z,6.87
2023-03-30T06:19:39.961Z,6.92
2023-03-30T06:21:43.038Z,6.98
2023-03-30T06:23:45.591Z,7.03
2023-03-30T06:25:52.808Z,7.12
2023-03-30T06:27:56.129Z,7.17
2023-03-30T06:29:59.152Z,7.12
2023-03-30T06:32:03.980Z,7.17
2023-03-30T06:34:06.878Z,7.16
2023-03-30T06:36:14.525Z,7.17
2023-03-30T06:38:19.238Z,7.19
2023-03-30T06:40:21.782Z,7.26
2023-03-30T06:42:28.177Z,7.29
2023-03-30T06:44:31.381Z,7.27
2023-03-30T06:46:34.757Z,7.26
2023-03-30T06:48:37.587Z,7.32
2023-03-30T06:50:41.181Z,7.36
2023-03-30T06:52:43.929Z,7.33
2023-03-30T06:54:46.913Z,7.36
2023-03-30T06:56:50.162Z,7.35
2023-03-30T06:58:53.080Z,7.23
2023-03-30T07:00:55.905Z,7.19
2023-03-30T07:03:02.623Z,7.20
2023-03-30T07:05:12.645Z,7.24
2023-03-30T07:07:15.234Z,7.23
2023-03-30T07:09:18.598Z,7.29
2023-03-30T07:11:22.520Z,7.25
2023-03-30T07:13:25.160Z,7.32
2023-03-30T07:15:28.185Z,7.46
2023-03-30T07:17:31.641Z,7.67
2023-03-30T07:19:34.323Z,7.88
2023-03-30T07:21:37.254Z,7.98
2023-03-30T07:23:40.588Z,8.04
2023-03-30T07:25:45.116Z,8.14
2023-03-30T07:27:48.001Z,8.24
2023-03-30T07:29:51.595Z,8.33
2023-03-30T07:31:56.925Z,8.38
2023-03-30T07:33:59.917Z,8.52
2023-03-30T07:36:03.442Z,8.53
2023-03-30T07:38:06.064Z,8.60
2023-03-30T07:40:09.499Z,8.61
2023-03-30T07:42:12.406Z,8.73
2023-03-30T07:44:15.221Z,8.72
2023-03-30T07:46:17.896Z,8.73
2023-03-30T07:48:20.519Z,8.88
2023-03-30T07:50:25.716Z,8.95
2023-03-30T07:52:28.897Z,8.99
2023-03-30T07:54:32.608Z,8.94
2023-03-30T07:56:38.719Z,8.99
2023-03-30T07:58:41.496Z,9.00
2023-03-30T08:00:45.039Z,9.04
2023-03-30T08:02:47.968Z,9.11
2023-03-30T08:04:50.754Z,9.26
2023-03-30T08:06:53.877Z,9.33
2023-03-30T08:08:56.837Z,9.36
2023-03-30T08:10:59.989Z,9.36
2023-03-30T08:13:02.695Z,9.40
2023-03-30T08:15:05.824Z,9.42
2023-03-30T08:17:08.618Z,9.27
2023-03-30T08:19:12.143Z,9.24
2023-03-30T08:21:14.922Z,9.24
2023-03-30T08:23:17.807Z,9.23
2023-03-30T08:25:21.040Z,9.22
2023-03-30T08:27:23.780Z,9.16
2023-03-30T08:29:26.406Z,9.16
2023-03-30T08:31:32.925Z,9.28
2023-03-30T08:33:36.030Z,9.40
2023-03-30T08:35:39.572Z,9.42
2023-03-30T08:37:48.115Z,9.38
2023-03-30T08:39:56.132Z,9.54
2023-03-30T08:42:37.084Z,9.59
2023-03-30T08:44:43.377Z,9.55
2023-03-30T08:46:47.704Z,9.57
2023-03-30T08:48:52.540Z,9.66
2023-03-30T08:50:59.603Z,9.68
2023-03-30T08:53:06.641Z,9.78
2023-03-30T08:55:28.588Z,9.81
2023-03-30T08:57:37.242Z,9.94
2023-03-30T08:59:55.251Z,10.00
2023-03-30T09:02:04.484Z,10.04
2023-03-30T09:04:35.056Z,10.08
2023-03-30T09:06:46.119Z,10.13
2023-03-30T09:08:49.617Z,10.09
2023-03-30T09:11:01.368Z,10.21
2023-03-30T09:13:06.774Z,10.25
2023-03-30T09:15:45.980Z,10.22
2023-03-30T09:17:51.704Z,10.15
2023-03-30T09:19:57.855Z,10.13
2023-03-30T09:22:06.236Z,10.06
2023-03-30T09:24:27.697Z,10.01
2023-03-30T09:26:44.769Z,10.02
2023-03-30T09:29:24.947Z,9.95
2023-03-30T09:31:32.651Z,9.91
2023-03-30T09:33:55.080Z,9.94
2023-03-30T09:36:19.414Z,9.81
2023-03-30T09:38:25.502Z,9.79
2023-03-30T09:41:06.768Z,9.78
2023-03-30T09:43:32.357Z,9.90
2023-03-30T09:45:36.290Z,9.99
2023-03-30T09:47:40.050Z,10.05
2023-03-30T09:49:42.865Z,10.21
2023-03-30T09:52:02.639Z,10.53
2023-03-30T09:54:07.235Z,10.76
2023-03-30T09:56:40.228Z,10.90
2023-03-30T09:58:44.316Z,11.00
2023-03-30T10:01:00.978Z,10.99
2023-03-30T10:03:06.929Z,11.15
2023-03-30T10:05:18.073Z,11.34
2023-03-30T10:07:37.320Z,11.41
2023-03-30T10:09:44.795Z,11.49
2023-03-30T10:11:52.115Z,11.55
2023-03-30T10:13:54.784Z,11.65
2023-03-30T10:16:06.114Z,11.79
2023-03-30T10:18:26.856Z,11.87
2023-03-30T10:20:39.148Z,12.07
2023-03-30T10:22:51.845Z,12.05
2023-03-30T10:24:57.174Z,12.04
2023-03-30T10:27:10.148Z,11.92
2023-03-30T10:29:17.154Z,11.93
2023-03-30T10:31:20.584Z,11.88
2023-03-30T10:33:24.083Z,11.91
2023-03-30T10:35:32.898Z,12.02
2023-03-30T10:37:42.950Z,12.18
2023-03-30T10:39:48.281Z,12.27
2023-03-30T10:41:52.198Z,12.23
2023-03-30T10:43:54.846Z,12.17
2023-03-30T10:46:09.022Z,12.04
2023-03-30T10:48:59.328Z,11.79
2023-03-30T10:51:24.620Z,11.68
2023-03-30T10:53:59.945Z,11.58
2023-03-30T10:56:23.691Z,11.53
2023-03-30T10:59:17.825Z,11.49
2023-03-30T11:01:20.888Z,11.39
2023-03-30T11:03:29.657Z,11.29
2023-03-30T11:05:38.869Z,11.14
2023-03-30T11:07:43.464Z,11.00
2023-03-30T11:09:53.680Z,11.00
2023-03-30T11:12:05.654Z,10.91
2023-03-30T11:14:19.611Z,10.73
2023-03-30T11:16:31.721Z,10.65
2023-03-30T11:18:49.378Z,10.56
2023-03-30T11:21:05.420Z,10.54
2023-03-30T11:23:39.830Z,10.43
2023-03-30T11:26:04.490Z,10.36
2023-03-30T11:28:26.312Z,10.32
2023-03-30T11:30:30.125Z,10.25
2023-03-30T11:32:49.388Z,10.17
2023-03-30T11:35:03.708Z,10.10
2023-03-30T11:37:35.597Z,10.04
2023-03-30T11:39:45.754Z,9.98
2023-03-30T11:41:59.779Z,9.97
2023-03-30T11:44:03.183Z,9.99
2023-03-30T11:46:08.995Z,10.02
2023-03-30T11:48:41.307Z,10.01
2023-03-30T11:51:08.720Z,10.05
2023-03-30T11:53:29.016Z,10.05
2023-03-30T11:55:46.589Z,10.09
2023-03-30T11:57:52.159Z,10.14
2023-03-30T11:59:56.522Z,10.15
2023-03-30T12:02:20.745Z,10.20
2023-03-30T12:04:31.641Z,10.18
2023-03-30T12:06:41.383Z,10.18
2023-03-30T12:09:11.173Z,10.19
2023-03-30T12:11:37.680Z,10.21
2023-03-30T12:13:50.628Z,10.24
2023-03-30T12:16:14.069Z,10.30
2023-03-30T12:18:16.777Z,10.33
2023-03-30T12:20:35.152Z,10.29
2023-03-30T12:22:57.672Z,10.34
2023-03-30T12:25:26.382Z,10.38
2023-03-30T12:27:31.483Z,10.42
2023-03-30T12:32:04.863Z,10.35
2023-03-30T12:34:07.906Z,10.37
2023-03-30T12:36:38.217Z,10.39
2023-03-30T12:38:46.728Z,10.36
2023-03-30T12:41:02.894Z,10.30
2023-03-30T12:43:19.577Z,10.23
2023-03-30T12:45:34.592Z,10.25
2023-03-30T12:47:47.258Z,10.26
2023-03-30T12:50:13.587Z,10.26
2023-03-30T12:52:51.715Z,10.28
2023-03-30T12:55:01.941Z,10.26
2023-03-30T12:57:27.349Z,10.25
2023-03-30T12:59:49.967Z,10.25
2023-03-30T13:02:36.958Z,10.27
2023-03-30T13:04:44.285Z,10.22
2023-03-30T13:06:54.297Z,10.22
2023-03-30T13:09:24.028Z,10.21
2023-03-30T13:11:26.640Z,10.23
2023-03-30T13:13:47.754Z,10.25
2023-03-30T13:15:54.930Z,10.21
2023-03-30T13:18:23.609Z,10.15
2023-03-30T13:20:47.970Z,10.11
2023-03-30T13:23:01.284Z,10.06
2023-03-30T13:25:12.804Z,9.99
2023-03-30T13:27:18.054Z,9.99
2023-03-30T13:29:24.049Z,9.98
2023-03-30T13:31:44.556Z,9.93
2023-03-30T13:33:56.557Z,9.96
2023-03-30T13:36:02.020Z,9.97
2023-03-30T13:38:38.275Z,9.91
2023-03-30T13:43:23.737Z,9.95
2023-03-30T13:45:32.655Z,9.89
2023-03-30T13:47:44.733Z,9.89
2023-03-30T13:50:03.648Z,9.86
2023-03-30T13:52:13.886Z,9.85
2023-03-30T13:54:24.884Z,9.79
2023-03-30T13:56:32.395Z,9.76
2023-03-30T13:58:36.417Z,9.80
2023-03-30T14:01:05.916Z,9.80
2023-03-30T14:03:33.994Z,9.82
2023-03-30T14:05:38.902Z,9.77
2023-03-30T14:07:46.580Z,9.80
2023-03-30T14:10:14.612Z,9.81
2023-03-30T14:12:22.280Z,9.79
2023-03-30T14:14:37.503Z,9.76
2023-03-30T14:16:41.228Z,9.72
2023-03-30T14:18:44.024Z,9.69
2023-03-30T14:20:56.511Z,9.70
2023-03-30T14:23:00.711Z,9.66
2023-03-30T14:25:07.017Z,9.62
2023-03-30T14:27:14.752Z,9.64
2023-03-30T14:29:30.318Z,9.65
2023-03-30T14:31:42.066Z,9.62
2023-03-30T14:33:45.186Z,9.56
2023-03-30T14:35:50.244Z,9.55
2023-03-30T14:37:53.657Z,9.51
2023-03-30T14:39:57.586Z,9.47
2023-03-30T14:42:18.926Z,9.38
2023-03-30T14:44:23.653Z,9.36
2023-03-30T14:46:32.646Z,9.34
2023-03-30T14:48:43.310Z,9.27
2023-03-30T14:50:46.787Z,9.21
2023-03-30T14:52:50.642Z,9.20
2023-03-30T14:55:06.636Z,9.19
2023-03-30T14:57:12.787Z,9.09
2023-03-30T14:59:18.793Z,9.10
2023-03-30T15:01:32.396Z,9.02
2023-03-30T15:03:37.483Z,8.99
2023-03-30T15:05:43.470Z,8.99
2023-03-30T15:07:50.982Z,8.93
2023-03-30T15:09:59.056Z,8.88
2023-03-30T15:12:05.128Z,8.85
2023-03-30T15:14:42.732Z,8.83
2023-03-30T15:17:12.931Z,8.81
2023-03-30T15:19:33.850Z,8.75
2023-03-30T15:21:46.763Z,8.71
2023-03-30T15:24:17.165Z,8.72
2023-03-30T15:26:29.248Z,8.69
2023-03-30T15:28:43.531Z,8.71
2023-03-30T15:30:51.351Z,8.69
2023-03-30T15:32:57.961Z,8.65
2023-03-30T15:35:23.355Z,8.62
2023-03-30T15:37:25.929Z,8.61
2023-03-30T15:39:34.152Z,8.54
2023-03-30T15:42:01.955Z,8.54
2023-03-30T15:44:12.385Z,8.54
2023-03-30T15:46:16.512Z,8.56
2023-03-30T15:48:33.808Z,8.49
2023-03-30T15:50:37.333Z,8.50
2023-03-30T15:52:44.810Z,8.44
2023-03-30T15:54:55.524Z,8.45
2023-03-30T15:57:13.441Z,8.44
2023-03-30T15:59:20.993Z,8.42
2023-03-30T16:01:23.699Z,8.39
2023-03-30T16:03:40.475Z,8.38
2023-03-30T16:05:45.460Z,8.35
2023-03-30T16:07:48.650Z,8.35
2023-03-30T16:09:51.821Z,8.32
2023-03-30T16:11:54.529Z,8.31
2023-03-30T16:13:59.108Z,8.29
2023-03-30T16:16:01.864Z,8.25
2023-03-30T16:18:04.619Z,8.26
2023-03-30T16:20:25.833Z,8.26
2023-03-30T16:22:28.407Z,8.19
2023-03-30T16:24:31.039Z,8.19
2023-03-30T16:26:34.059Z,8.16
2023-03-30T16:28:36.788Z,8.15
2023-03-30T16:30:41.019Z,8.12
2023-03-30T16:32:43.822Z,8.10
2023-03-30T16:34:46.524Z,8.12
2023-03-30T16:36:50.367Z,8.07
2023-03-30T16:38:52.999Z,8.07
2023-03-30T16:40:58.816Z,8.05
2023-03-30T16:43:01.889Z,8.06
2023-03-30T16:45:04.962Z,8.04
2023-03-30T16:47:09.104Z,8.04
2023-03-30T16:49:23.412Z,7.98
2023-03-30T16:51:26.249Z,7.96
2023-03-30T16:53:28.905Z,7.93
2023-03-30T16:55:31.978Z,7.94
2023-03-30T16:57:34.725Z,7.91
2023-03-30T16:59:37.778Z,7.86
2023-03-30T17:01:40.467Z,7.83
2023-03-30T17:03:43.154Z,7.78
2023-03-30T17:05:48.616Z,7.74
2023-03-30T17:07:55.198Z,7.75
2023-03-30T17:09:58.204Z,7.72
2023-03-30T17:12:00.887Z,7.68
2023-03-30T17:14:03.598Z,7.60
2023-03-30T17:16:06.807Z,7.57
2023-03-30T17:18:20.680Z,7.54
2023-03-30T17:20:33.303Z,7.54
2023-03-30T17:22:35.903Z,7.51
2023-03-30T17:24:38.549Z,7.52
2023-03-30T17:26:41.445Z,7.56
2023-03-30T17:28:44.476Z,7.53
2023-03-30T17:30:47.231Z,7.53
2023-03-30T17:32:50.486Z,7.54
2023-03-30T17:34:53.106Z,7.52
2023-03-30T17:36:55.695Z,7.56
2023-03-30T17:38:59.791Z,7.61
2023-03-30T17:41:02.983Z,7.64
2023-03-30T17:43:11.015Z,7.61
2023-03-30T17:45:16.045Z,7.68
2023-03-30T17:47:18.647Z,7.68
2023-03-30T17:49:21.302Z,7.64
2023-03-30T17:51:23.961Z,7.69
2023-03-30T17:53:26.825Z,7.71
2023-03-30T17:55:31.497Z,7.75
2023-03-30T17:57:34.107Z,7.73
2023-03-30T17:59:36.716Z,7.73
2023-03-30T18:01:40.194Z,7.69
2023-03-30T18:03:44.944Z,7.69
2023-03-30T18:05:48.931Z,7.69
2023-03-30T18:07:52.248Z,7.66
2023-03-30T18:09:54.833Z,7.67
2023-03-30T18:11:57.593Z,7.66
2023-03-30T18:14:00.245Z,7.62
2023-03-30T18:16:02.981Z,7.61
2023-03-30T18:18:05.777Z,7.63
2023-03-30T18:20:22.304Z,7.65
2023-03-30T18:22:24.881Z,7.69
2023-03-30T18:24:27.782Z,7.62
2023-03-30T18:26:31.470Z,7.58
2023-03-30T18:28:34.265Z,7.58
2023-03-30T18:30:38.400Z,7.58
2023-03-30T18:32:46.991Z,7.59
2023-03-30T18:34:50.195Z,7.54
2023-03-30T18:36:52.776Z,7.60
2023-03-30T18:38:55.982Z,7.58
2023-03-30T18:40:58.671Z,7.55
2023-03-30T18:43:01.700Z,7.51
2023-03-30T18:45:04.963Z,7.53
2023-03-30T18:47:09.502Z,7.46
2023-03-30T18:49:15.550Z,7.43
2023-03-30T18:51:19.421Z,7.33
2023-03-30T18:53:27.382Z,7.37
2023-03-30T18:55:32.191Z,7.32
2023-03-30T18:57:35.196Z,7.32
2023-03-30T18:59:39.794Z,7.33
2023-03-30T19:01:46.143Z,7.30
2023-03-30T19:03:49.730Z,7.25
2023-03-30T19:05:52.501Z,7.16
2023-03-30T19:07:56.015Z,7.17
2023-03-30T19:09:58.712Z,7.14
2023-03-30T19:12:01.268Z,7.08
2023-03-30T19:14:04.739Z,7.05
2023-03-30T19:16:09.296Z,7.02
2023-03-30T19:18:14.276Z,6.99
2023-03-30T19:20:17.989Z,6.91
2023-03-30T19:22:20.641Z,6.89
2023-03-30T19:24:23.260Z,6.81
2023-03-30T19:26:26.356Z,6.80
2023-03-30T19:28:29.014Z,6.76
2023-03-30T19:30:38.345Z,6.75
2023-03-30T19:32:43.400Z,6.74
2023-03-30T19:34:46.683Z,6.74
2023-03-30T19:36:49.252Z,6.74
2023-03-30T19:38:51.841Z,6.75
2023-03-30T19:40:59.220Z,6.68
2023-03-30T19:43:01.817Z,6.68
2023-03-30T19:45:05.746Z,6.69
2023-03-30T19:47:08.240Z,6.70
2023-03-30T19:49:11.031Z,6.68
2023-03-30T19:51:13.682Z,6.66
2023-03-30T19:53:17.588Z,6.63
2023-03-30T19:55:21.095Z,6.61
2023-03-30T19:57:23.936Z,6.60
2023-03-30T19:59:28.923Z,6.61
2023-03-30T20:01:31.542Z,6.56
2023-03-30T20:03:35.503Z,6.61
2023-03-30T20:05:38.960Z,6.56
2023-03-30T20:07:43.940Z,6.61
2023-03-30T20:09:46.802Z,6.54
2023-03-30T20:11:49.420Z,6.45
2023-03-30T20:13:54.089Z,6.40
2023-03-30T20:15:57.052Z,6.42
2023-03-30T20:18:00.173Z,6.39
2023-03-30T20:20:07.296Z,6.43
2023-03-30T20:22:09.991Z,6.38
2023-03-30T20:24:12.587Z,6.35
2023-03-30T20:26:19.563Z,6.42
2023-03-30T20:28:22.129Z,6.41
2023-03-30T20:30:24.853Z,6.32
2023-03-30T20:32:27.748Z,6.34
2023-03-30T20:34:31.738Z,6.32
2023-03-30T20:36:34.472Z,6.28
2023-03-30T20:38:39.808Z,6.30
2023-03-30T20:40:42.591Z,6.29
2023-03-30T20:42:48.228Z,6.29
2023-03-30T20:44:50.851Z,6.30
2023-03-30T20:46:58.131Z,6.25
2023-03-30T20:49:02.296Z,6.25
2023-03-30T20:51:06.857Z,6.28
2023-03-30T20:53:09.629Z,6.28
2023-03-30T20:55:12.845Z,6.23
2023-03-30T20:57:15.881Z,6.28
2023-03-30T20:59:18.499Z,6.29
2023-03-30T21:01:27.389Z,6.24
2023-03-30T21:03:30.040Z,6.23
2023-03-30T21:05:32.688Z,6.24
2023-03-30T21:07:38.535Z,6.22
2023-03-30T21:09:41.642Z,6.20
2023-03-30T21:11:44.933Z,6.20
2023-03-30T21:13:49.453Z,6.09
2023-03-30T21:15:59.700Z,6.16
2023-03-30T21:18:02.304Z,6.14
2023-03-30T21:20:08.338Z,6.16
2023-03-30T21:22:11.205Z,6.12
2023-03-30T21:24:13.919Z,6.10
2023-03-30T21:26:18.744Z,6.07
2023-03-30T21:28:21.621Z,6.07
2023-03-30T21:30:24.260Z,6.05
2023-03-30T21:32:28.678Z,6.05
2023-03-30T21:34:32.845Z,6.01
2023-03-30T21:36:35.634Z,6.02
2023-03-30T21:38:38.492Z,6.03
2023-03-30T21:40:41.085Z,6.04
2023-03-30T21:42:43.669Z,6.03
2023-03-30T21:44:46.312Z,6.05
2023-03-30T21:46:48.964Z,6.04
2023-03-30T21:48:54.004Z,6.01
2023-03-30T21:51:05.463Z,5.94
2023-03-30T21:53:08.020Z,5.98
2023-03-30T21:55:10.667Z,5.98
2023-03-30T21:57:13.383Z,5.98
2023-03-30T21:59:16.022Z,6.03
2023-03-30T22:01:20.149Z,6.05
2023-03-30T22:03:23.420Z,5.98
2023-03-30T22:05:26.436Z,5.95
2023-03-30T22:07:28.998Z,5.95
2023-03-30T22:09:31.619Z,5.92
2023-03-30T22:11:34.500Z,5.98
2023-03-30T22:13:37.090Z,5.96
2023-03-30T22:15:39.726Z,5.95
2023-03-30T22:17:42.316Z,6.02
2023-03-30T22:19:44.919Z,5.97
2023-03-30T22:21:48.162Z,5.95
2023-03-30T22:23:51.304Z,5.95
2023-03-30T22:25:53.965Z,5.93
2023-03-30T22:27:58.041Z,5.92
2023-03-30T22:30:01.366Z,5.88
2023-03-30T22:32:04.949Z,5.90
2023-03-30T22:34:08.218Z,5.89
2023-03-30T22:36:17.464Z,5.83
2023-03-30T22:38:20.883Z,5.72
2023-03-30T22:40:23.511Z,5.82
2023-03-30T22:42:26.170Z,5.76
2023-03-30T22:44:28.751Z,5.77
2023-03-30T22:46:31.417Z,5.79
2023-03-30T22:48:35.788Z,5.75
2023-03-30T22:50:38.570Z,5.70
2023-03-30T22:52:41.428Z,5.68
2023-03-30T22:54:44.213Z,5.65
2023-03-30T22:56:46.881Z,5.66
2023-03-30T22:58:49.446Z,5.62
2023-03-30T23:00:53.174Z,5.60
2023-03-30T23:02:55.896Z,5.58
2023-03-30T23:04:58.514Z,5.56
2023-03-30T23:07:04.336Z,5.56
2023-03-30T23:09:07.123Z,5.49
2023-03-30T23:11:09.912Z,5.47
2023-03-30T23:13:12.491Z,5.44
2023-03-30T23:15:15.216Z,5.45
2023-03-30T23:17:18.465Z,5.43
2023-03-30T23:19:21.718Z,5.43
2023-03-30T23:21:24.335Z,5.48
2023-03-30T23:23:27.182Z,5.46
2023-03-30T23:25:29.765Z,5.47
2023-03-30T23:27:32.756Z,5.42
2023-03-30T23:29:35.404Z,5.42
2023-03-30T23:31:38.994Z,5.43
2023-03-30T23:33:42.747Z,5.41
2023-03-30T23:35:49.974Z,5.33
2023-03-30T23:37:52.859Z,5.32
2023-03-30T23:39:55.619Z,5.35
2023-03-30T23:41:58.295Z,5.34
2023-03-30T23:44:01.274Z,5.32
2023-03-30T23:46:04.852Z,5.34
2023-03-30T23:48:07.794Z,5.32
2023-03-30T23:50:10.662Z,5.33
2023-03-30T23:52:13.727Z,5.36
2023-03-30T23:54:17.900Z,5.28
2023-03-30T23:56:21.425Z,5.30
2023-03-30T23:58:24.397Z,5.26
